createdAt,value
2019-05-11T00:01:20.255Z,76.20
2019-05-11T00:03:48.981Z,76.10
2019-05-11T00:06:17.655Z,75.60
2019-05-11T00:08:46.371Z,75.70
2019-05-11T00:11:15.059Z,75.40
2019-05-11T00:13:43.764Z,75.10
2019-05-11T00:16:12.459Z,74.90
2019-05-11T00:18:41.163Z,74.70
2019-05-11T00:21:09.843Z,74.90
2019-05-11T00:23:38.556Z,74.80
2019-05-11T00:26:07.239Z,74.90
2019-05-11T00:28:35.958Z,74.70
2019-05-11T00:31:04.634Z,74.70
2019-05-11T00:33:33.354Z,74.90
2019-05-11T00:36:02.051Z,75.30
2019-05-11T00:38:30.765Z,75.60
2019-05-11T00:40:59.454Z,75.60
2019-05-11T00:43:28.162Z,75.60
2019-05-11T00:45:56.844Z,75.60
2019-05-11T00:48:25.554Z,75.50
2019-05-11T00:50:54.240Z,75.70
2019-05-11T00:53:22.955Z,75.80
2019-05-11T00:55:51.640Z,76.30
2019-05-11T00:58:20.358Z,76.30
2019-05-11T01:00:49.042Z,76.30
2019-05-11T01:03:17.757Z,76.10
2019-05-11T01:05:46.450Z,76.10
2019-05-11T01:08:15.159Z,76.00
2019-05-11T01:10:44.156Z,76.00
2019-05-11T01:13:12.878Z,76.20
2019-05-11T01:15:41.567Z,76.40
2019-05-11T01:18:10.282Z,76.10
2019-05-11T01:20:38.961Z,76.10
2019-05-11T01:23:07.693Z,76.60
2019-05-11T01:25:36.371Z,77.50
2019-05-11T01:28:05.072Z,77.60
2019-05-11T01:30:33.751Z,78.00
2019-05-11T01:33:02.464Z,78.70
2019-05-11T01:35:31.153Z,79.40
2019-05-11T01:37:59.871Z,79.50
2019-05-11T01:40:28.550Z,79.70
2019-05-11T01:42:57.267Z,80.00
2019-05-11T01:45:25.935Z,80.10
2019-05-11T01:47:54.643Z,80.10
2019-05-11T01:50:23.331Z,79.60
2019-05-11T01:52:52.031Z,79.20
2019-05-11T01:55:20.706Z,79.00
2019-05-11T01:57:49.427Z,78.90
2019-05-11T02:00:18.108Z,78.70
2019-05-11T02:02:46.824Z,78.40
2019-05-11T02:05:31.242Z,78.50
2019-05-11T02:08:00.865Z,78.60
2019-05-11T02:10:30.036Z,78.50
2019-05-11T02:12:58.758Z,78.40
2019-05-11T02:15:27.431Z,78.40
2019-05-11T02:17:56.143Z,78.60
2019-05-11T02:20:24.827Z,78.60
2019-05-11T02:22:53.539Z,79.40
2019-05-11T02:25:22.216Z,78.50
2019-05-11T02:27:50.939Z,78.90
2019-05-11T02:30:19.641Z,78.90
2019-05-11T02:32:48.349Z,78.70
2019-05-11T02:35:17.019Z,78.70
2019-05-11T02:37:45.740Z,78.30
2019-05-11T02:40:16.232Z,78.30
2019-05-11T02:42:44.960Z,78.00
2019-05-11T02:45:13.640Z,77.70
2019-05-11T02:47:42.347Z,77.90
2019-05-11T02:50:11.027Z,77.90
2019-05-11T02:52:39.782Z,77.80
2019-05-11T02:55:08.858Z,78.20
2019-05-11T02:57:37.578Z,78.20
2019-05-11T03:00:08.263Z,78.30
2019-05-11T03:02:36.982Z,78.20
2019-05-11T03:05:07.170Z,78.20
2019-05-11T03:07:35.882Z,78.10
2019-05-11T03:10:04.659Z,78.10
2019-05-11T03:12:33.342Z,77.70
2019-05-11T03:15:02.064Z,77.70
2019-05-11T03:17:32.312Z,77.60
2019-05-11T03:20:01.031Z,77.70
2019-05-11T03:22:29.799Z,78.30
2019-05-11T03:24:58.535Z,78.70
2019-05-11T03:27:27.215Z,78.90
2019-05-11T03:30:00.293Z,78.70
2019-05-11T03:32:26.260Z,78.70
2019-05-11T03:34:54.986Z,78.50
2019-05-11T03:37:23.667Z,78.40
2019-05-11T03:39:52.371Z,78.20
2019-05-11T03:42:21.054Z,78.40
2019-05-11T03:44:49.768Z,78.50
2019-05-11T03:47:18.443Z,78.60
2019-05-11T03:49:47.163Z,78.80
2019-05-11T03:52:15.856Z,78.70
2019-05-11T03:54:44.576Z,79.10
2019-05-11T03:57:13.261Z,79.50
2019-05-11T03:59:41.978Z,79.20
2019-05-11T04:02:10.643Z,79.20
2019-05-11T04:04:39.380Z,79.10
2019-05-11T04:07:08.045Z,79.20
2019-05-11T04:09:36.770Z,78.90
2019-05-11T04:12:05.452Z,78.90
2019-05-11T04:14:34.175Z,79.10
2019-05-11T04:17:02.851Z,79.20
2019-05-11T04:19:31.569Z,79.20
2019-05-11T04:22:00.250Z,79.00
2019-05-11T04:24:28.968Z,78.80
2019-05-11T04:26:57.648Z,79.80
2019-05-11T04:29:26.356Z,80.00
2019-05-11T04:31:55.039Z,80.10
2019-05-11T04:34:23.758Z,80.00
2019-05-11T04:36:52.449Z,80.90
2019-05-11T04:39:21.156Z,81.20
2019-05-11T04:41:49.832Z,81.40
2019-05-11T04:44:18.555Z,81.60
2019-05-11T04:46:47.242Z,82.20
2019-05-11T04:49:15.964Z,82.30
2019-05-11T04:51:44.660Z,82.00
2019-05-11T04:54:13.402Z,82.00
2019-05-11T04:56:42.079Z,81.90
2019-05-11T04:59:10.814Z,81.80
2019-05-11T05:01:39.511Z,81.70
2019-05-11T05:04:13.655Z,81.40
2019-05-11T05:06:39.068Z,81.30
2019-05-11T05:09:07.919Z,81.50
2019-05-11T05:11:38.376Z,81.50
2019-05-11T05:14:08.333Z,80.80
2019-05-11T05:16:37.369Z,81.10
2019-05-11T05:19:06.095Z,81.10
2019-05-11T05:21:34.771Z,81.10
2019-05-11T05:24:03.505Z,81.20
2019-05-11T05:26:32.188Z,81.20
2019-05-11T05:29:00.970Z,80.80
2019-05-11T05:31:29.699Z,81.00
2019-05-11T05:34:01.376Z,81.70
2019-05-11T05:36:28.957Z,81.60
2019-05-11T05:38:57.687Z,81.70
2019-05-11T05:41:26.388Z,82.30
2019-05-11T05:43:55.108Z,81.90
2019-05-11T05:46:23.808Z,81.70
2019-05-11T05:48:52.535Z,81.40
2019-05-11T05:51:21.227Z,80.90
2019-05-11T05:53:49.943Z,80.10
2019-05-11T05:56:18.623Z,80.20
2019-05-11T05:58:47.351Z,80.30
2019-05-11T06:01:16.033Z,80.20
2019-05-11T06:03:44.760Z,80.40
2019-05-11T06:06:13.442Z,80.20
2019-05-11T06:08:43.266Z,80.50
2019-05-11T06:11:12.155Z,81.10
2019-05-11T06:13:45.294Z,82.30
2019-05-11T06:16:11.235Z,82.10
2019-05-11T06:18:39.917Z,81.80
2019-05-11T06:21:08.644Z,81.90
2019-05-11T06:23:37.326Z,82.00
2019-05-11T06:26:06.067Z,82.20
2019-05-11T06:28:35.861Z,82.00
2019-05-11T06:31:04.575Z,81.90
2019-05-11T06:33:33.262Z,81.70
2019-05-11T06:36:01.989Z,81.90
2019-05-11T06:38:30.693Z,81.60
2019-05-11T06:40:59.416Z,82.10
2019-05-11T06:43:28.106Z,81.40
2019-05-11T06:45:56.835Z,81.40
2019-05-11T06:48:25.518Z,81.50
2019-05-11T06:50:54.233Z,80.80
2019-05-11T06:53:22.928Z,81.30
2019-05-11T06:55:51.702Z,80.50
2019-05-11T06:58:20.423Z,79.90
2019-05-11T07:00:49.128Z,79.40
2019-05-11T07:03:17.806Z,79.50
2019-05-11T07:05:46.524Z,79.10
2019-05-11T07:08:15.211Z,78.60
2019-05-11T07:10:43.942Z,78.40
2019-05-11T07:13:12.626Z,78.30
2019-05-11T07:15:41.356Z,78.60
2019-05-11T07:18:10.018Z,77.20
2019-05-11T07:20:50.152Z,76.50
2019-05-11T07:23:09.066Z,75.20
2019-05-11T07:25:37.786Z,74.90
2019-05-11T07:28:06.464Z,74.50
2019-05-11T07:30:35.180Z,74.40
2019-05-11T07:33:03.857Z,74.00
2019-05-11T07:35:33.780Z,73.60
2019-05-11T07:38:02.465Z,72.50
2019-05-11T07:40:31.188Z,71.90
2019-05-11T07:42:59.866Z,73.10
2019-05-11T07:45:28.582Z,72.40
2019-05-11T07:47:58.996Z,72.40
2019-05-11T07:50:28.433Z,72.70
2019-05-11T07:52:58.829Z,72.50
2019-05-11T07:55:28.293Z,71.40
2019-05-11T07:57:58.654Z,71.50
2019-05-11T08:00:28.175Z,70.90
2019-05-11T08:02:58.544Z,70.70
2019-05-11T08:05:28.358Z,69.80
2019-05-11T08:07:59.300Z,69.70
2019-05-11T08:10:28.275Z,69.40
2019-05-11T08:12:58.837Z,68.90
2019-05-11T08:15:28.368Z,68.60
2019-05-11T08:17:57.856Z,69.30
2019-05-11T08:20:28.112Z,68.20
2019-05-11T08:22:58.730Z,68.10
2019-05-11T08:25:28.712Z,67.20
2019-05-11T08:27:58.786Z,67.80
2019-05-11T08:30:27.903Z,67.40
2019-05-11T08:32:58.249Z,68.60
2019-05-11T08:35:30.910Z,68.60
2019-05-11T08:37:58.251Z,67.20
2019-05-11T08:40:28.902Z,67.10
2019-05-11T08:42:58.359Z,68.30
2019-05-11T08:45:27.994Z,68.20
2019-05-11T08:47:57.903Z,67.60
2019-05-11T08:50:27.913Z,67.70
2019-05-11T08:52:58.105Z,68.20
2019-05-11T08:55:28.998Z,68.50
2019-05-11T08:57:58.550Z,69.80
2019-05-11T09:00:28.363Z,69.90
2019-05-11T09:02:58.288Z,66.80
2019-05-11T09:05:28.068Z,66.60
2019-05-11T09:07:57.760Z,66.70
2019-05-11T09:10:28.086Z,66.70
2019-05-11T09:12:59.025Z,66.50
2019-05-11T09:15:36.238Z,67.70
2019-05-11T09:17:57.923Z,67.30
2019-05-11T09:20:28.531Z,66.40
2019-05-11T09:22:58.872Z,66.30
2019-05-11T09:25:27.829Z,65.30
2019-05-11T09:27:58.776Z,64.70
2019-05-11T09:30:28.816Z,63.80
2019-05-11T09:32:58.103Z,64.90
2019-05-11T09:35:29.051Z,63.50
2019-05-11T09:37:58.811Z,63.60
2019-05-11T09:40:28.362Z,62.80
2019-05-11T09:42:58.558Z,64.20
2019-05-11T09:45:27.869Z,63.30
2019-05-11T09:47:58.271Z,62.70
2019-05-11T09:50:28.414Z,60.20
2019-05-11T09:52:58.073Z,60.20
2019-05-11T09:55:28.312Z,59.70
2019-05-11T09:57:57.979Z,61.80
2019-05-11T10:00:28.218Z,61.10
2019-05-11T10:02:57.683Z,63.00
2019-05-11T10:05:28.455Z,64.70
2019-05-11T10:07:58.949Z,64.50
2019-05-11T10:10:28.937Z,61.80
2019-05-11T10:12:59.041Z,61.80
2019-05-11T10:15:28.129Z,59.90
2019-05-11T10:17:58.843Z,59.50
2019-05-11T10:20:28.621Z,59.00
2019-05-11T10:22:58.056Z,62.10
2019-05-11T10:25:28.687Z,61.30
2019-05-11T10:27:58.017Z,60.20
2019-05-11T10:30:28.007Z,60.50
2019-05-11T10:32:57.900Z,57.70
2019-05-11T10:35:28.848Z,57.90
2019-05-11T10:37:58.303Z,58.70
2019-05-11T10:40:28.121Z,59.90
2019-05-11T10:42:58.972Z,56.30
2019-05-11T10:45:28.554Z,57.10
2019-05-11T10:48:00.663Z,57.50
2019-05-11T10:50:28.744Z,56.40
2019-05-11T10:52:59.037Z,57.60
2019-05-11T10:55:28.062Z,55.90
2019-05-11T10:57:58.105Z,53.50
2019-05-11T11:00:28.264Z,55.70
2019-05-11T11:02:58.143Z,54.30
2019-05-11T11:05:27.936Z,54.00
2019-05-11T11:07:58.878Z,54.80
2019-05-11T11:10:28.608Z,54.30
2019-05-11T11:12:57.930Z,54.20
2019-05-11T11:15:28.742Z,53.90
2019-05-11T11:17:57.877Z,52.00
2019-05-11T11:20:28.067Z,51.70
2019-05-11T11:22:58.355Z,51.10
2019-05-11T11:25:28.355Z,54.50
2019-05-11T11:27:57.918Z,53.40
2019-05-11T11:30:28.650Z,51.80
2019-05-11T11:32:58.751Z,49.20
2019-05-11T11:35:27.951Z,46.10
2019-05-11T11:37:58.496Z,47.60
2019-05-11T11:40:28.192Z,50.60
2019-05-11T11:42:58.086Z,51.30
2019-05-11T11:45:28.807Z,51.00
2019-05-11T11:47:58.058Z,50.60
2019-05-11T11:50:28.302Z,50.40
2019-05-11T11:52:57.842Z,51.10
2019-05-11T11:55:28.759Z,51.70
2019-05-11T11:57:58.855Z,50.20
2019-05-11T12:00:28.825Z,50.70
2019-05-11T12:02:58.130Z,50.50
2019-05-11T12:05:28.333Z,48.60
2019-05-11T12:07:57.999Z,50.10
2019-05-11T12:10:28.711Z,50.40
2019-05-11T12:12:58.147Z,49.10
2019-05-11T12:15:28.200Z,49.60
2019-05-11T12:17:58.720Z,49.30
2019-05-11T12:20:28.642Z,49.50
2019-05-11T12:22:58.128Z,50.10
2019-05-11T12:25:27.745Z,50.60
2019-05-11T12:27:57.708Z,50.10
2019-05-11T12:30:28.520Z,50.40
2019-05-11T12:32:57.695Z,50.40
2019-05-11T12:35:28.457Z,50.50
2019-05-11T12:37:58.734Z,50.10
2019-05-11T12:40:28.275Z,50.50
2019-05-11T12:42:59.066Z,51.20
2019-05-11T12:45:29.363Z,51.50
2019-05-11T12:47:58.647Z,51.60
2019-05-11T12:50:28.605Z,52.20
2019-05-11T12:52:58.821Z,51.00
2019-05-11T12:55:28.683Z,50.10
2019-05-11T12:57:57.940Z,50.50
2019-05-11T13:00:30.893Z,52.10
2019-05-11T13:02:58.745Z,50.50
2019-05-11T13:05:28.543Z,50.90
2019-05-11T13:07:58.700Z,50.00
2019-05-11T13:10:28.264Z,48.70
2019-05-11T13:12:58.193Z,48.80
2019-05-11T13:15:28.180Z,47.70
2019-05-11T13:17:58.125Z,48.70
2019-05-11T13:20:28.556Z,49.30
2019-05-11T13:22:58.714Z,49.50
2019-05-11T13:25:28.257Z,50.50
2019-05-11T13:27:58.181Z,49.80
2019-05-11T13:30:27.822Z,49.60
2019-05-11T13:32:57.982Z,50.50
2019-05-11T13:35:28.507Z,50.90
2019-05-11T13:37:58.460Z,51.40
2019-05-11T13:40:27.805Z,51.20
2019-05-11T13:42:58.202Z,52.10
2019-05-11T13:45:28.261Z,51.70
2019-05-11T13:47:59.155Z,50.70
2019-05-11T13:50:29.448Z,50.30
2019-05-11T13:52:58.386Z,50.30
2019-05-11T13:55:28.469Z,50.20
2019-05-11T13:57:57.906Z,51.00
2019-05-11T14:00:28.756Z,52.40
2019-05-11T14:02:58.693Z,53.20
2019-05-11T14:05:28.457Z,54.00
2019-05-11T14:07:58.724Z,53.90
2019-05-11T14:10:28.298Z,53.90
2019-05-11T14:12:58.127Z,54.20
2019-05-11T14:15:28.102Z,54.60
2019-05-11T14:18:05.623Z,54.50
2019-05-11T14:20:28.904Z,54.80
2019-05-11T14:22:58.274Z,54.00
2019-05-11T14:25:28.049Z,54.50
2019-05-11T14:27:59.385Z,55.20
2019-05-11T14:30:27.993Z,54.70
2019-05-11T14:32:58.149Z,55.10
2019-05-11T14:35:28.025Z,55.70
2019-05-11T14:37:58.835Z,55.90
2019-05-11T14:40:28.128Z,55.70
2019-05-11T14:42:58.070Z,55.70
2019-05-11T14:45:28.864Z,55.80
2019-05-11T14:47:58.223Z,56.70
2019-05-11T14:50:28.114Z,56.20
2019-05-11T14:52:58.034Z,56.30
2019-05-11T14:55:28.857Z,55.70
2019-05-11T14:57:57.705Z,56.20
2019-05-11T15:00:28.758Z,56.70
2019-05-11T15:02:58.398Z,57.00
2019-05-11T15:05:28.343Z,57.20
2019-05-11T15:07:58.199Z,57.70
2019-05-11T15:10:27.774Z,58.40
2019-05-11T15:12:58.918Z,59.60
2019-05-11T15:15:27.956Z,60.00
2019-05-11T15:17:58.218Z,59.70
2019-05-11T15:20:28.492Z,60.20
2019-05-11T15:22:58.185Z,61.10
2019-05-11T15:25:28.886Z,61.10
2019-05-11T15:27:58.465Z,61.30
2019-05-11T15:30:28.755Z,62.10
2019-05-11T15:32:58.451Z,62.10
2019-05-11T15:35:28.471Z,62.40
2019-05-11T15:37:58.257Z,62.60
2019-05-11T15:40:27.925Z,62.40
2019-05-11T15:42:58.637Z,63.10
2019-05-11T15:45:27.675Z,63.60
2019-05-11T15:47:58.682Z,64.30
2019-05-11T15:50:29.113Z,62.60
2019-05-11T15:52:58.135Z,62.50
2019-05-11T15:55:27.889Z,62.70
2019-05-11T15:57:56.791Z,63.10
2019-05-11T16:00:25.538Z,62.30
2019-05-11T16:02:54.228Z,61.20
2019-05-11T16:05:22.952Z,60.10
2019-05-11T16:07:51.639Z,60.80
2019-05-11T16:10:20.362Z,61.10
2019-05-11T16:12:49.193Z,60.40
2019-05-11T16:15:19.129Z,60.40
2019-05-11T16:17:48.954Z,60.40
2019-05-11T16:20:18.322Z,60.20
2019-05-11T16:22:47.910Z,62.00
2019-05-11T16:25:19.275Z,62.50
2019-05-11T16:27:47.348Z,62.90
2019-05-11T16:30:20.924Z,63.40
2019-05-11T16:32:48.053Z,63.80
2019-05-11T16:35:17.953Z,63.00
2019-05-11T16:37:48.616Z,63.60
2019-05-11T16:40:20.283Z,64.30
2019-05-11T16:42:47.931Z,65.10
2019-05-11T16:45:18.983Z,64.50
2019-05-11T16:47:48.328Z,64.30
2019-05-11T16:50:18.153Z,64.90
2019-05-11T16:52:48.363Z,65.20
2019-05-11T16:55:18.351Z,65.90
2019-05-11T16:57:48.410Z,66.30
2019-05-11T17:00:17.650Z,66.70
2019-05-11T17:02:48.695Z,67.10
2019-05-11T17:05:25.806Z,67.30
2019-05-11T17:07:48.338Z,67.10
2019-05-11T17:10:17.912Z,67.30
2019-05-11T17:12:48.433Z,67.30
2019-05-11T17:15:18.566Z,67.70
2019-05-11T17:17:48.782Z,67.60
2019-05-11T17:20:18.681Z,67.60
2019-05-11T17:22:48.149Z,67.30
2019-05-11T17:25:19.295Z,67.40
2019-05-11T17:27:48.665Z,67.50
2019-05-11T17:30:19.239Z,67.90
2019-05-11T17:32:49.290Z,68.20
2019-05-11T17:35:18.304Z,68.50
2019-05-11T17:37:48.473Z,68.90
2019-05-11T17:40:20.746Z,69.20
2019-05-11T17:42:48.277Z,69.30
2019-05-11T17:45:18.932Z,69.40
2019-05-11T17:47:47.494Z,69.50
2019-05-11T17:50:18.812Z,70.20
2019-05-11T17:52:47.879Z,70.00
2019-05-11T17:55:18.392Z,69.30
2019-05-11T17:57:49.578Z,68.80
2019-05-11T18:00:19.760Z,69.10
2019-05-11T18:02:49.030Z,69.30
2019-05-11T18:05:18.151Z,69.50
2019-05-11T18:07:46.997Z,69.70
2019-05-11T18:10:18.017Z,69.90
2019-05-11T18:12:48.335Z,69.50
2019-05-11T18:15:18.659Z,69.80
2019-05-11T18:17:48.475Z,69.70
2019-05-11T18:20:20.590Z,69.60
2019-05-11T18:22:49.071Z,69.90
2019-05-11T18:25:18.439Z,70.20
2019-05-11T18:27:48.261Z,70.50
2019-05-11T18:30:17.310Z,70.60
2019-05-11T18:32:48.616Z,70.20
2019-05-11T18:35:19.086Z,70.60
2019-05-11T18:37:47.759Z,70.40
2019-05-11T18:40:18.638Z,70.50
2019-05-11T18:42:48.770Z,70.60
2019-05-11T18:45:18.927Z,70.60
2019-05-11T18:47:48.869Z,70.70
2019-05-11T18:50:29.361Z,70.60
2019-05-11T18:52:49.062Z,70.20
2019-05-11T18:55:18.968Z,69.70
2019-05-11T18:57:49.129Z,69.50
2019-05-11T19:00:18.498Z,69.90
2019-05-11T19:02:49.449Z,69.70
2019-05-11T19:05:18.168Z,69.70
2019-05-11T19:07:48.198Z,69.80
2019-05-11T19:10:17.196Z,69.70
2019-05-11T19:12:48.504Z,70.00
2019-05-11T19:15:18.593Z,70.50
2019-05-11T19:17:48.921Z,70.20
2019-05-11T19:20:17.835Z,70.70
2019-05-11T19:22:46.798Z,70.50
2019-05-11T19:25:17.959Z,70.50
2019-05-11T19:27:50.287Z,70.50
2019-05-11T19:30:18.477Z,70.50
2019-05-11T19:32:48.654Z,70.50
2019-05-11T19:35:18.077Z,70.60
2019-05-11T19:37:48.726Z,70.50
2019-05-11T19:40:17.651Z,70.40
2019-05-11T19:42:54.089Z,70.30
2019-05-11T19:45:23.181Z,70.40
2019-05-11T19:47:51.862Z,70.30
2019-05-11T19:50:20.598Z,70.10
2019-05-11T19:52:49.306Z,70.00
2019-05-11T19:55:18.302Z,70.10
2019-05-11T19:57:48.205Z,70.20
2019-05-11T20:00:18.380Z,69.80
2019-05-11T20:02:47.389Z,70.00
2019-05-11T20:05:18.144Z,69.70
2019-05-11T20:07:48.736Z,69.80
2019-05-11T20:10:18.859Z,69.50
2019-05-11T20:12:48.318Z,69.60
2019-05-11T20:15:18.731Z,68.50
2019-05-11T20:17:48.575Z,67.70
2019-05-11T20:20:18.619Z,67.00
2019-05-11T20:22:48.234Z,66.80
2019-05-11T20:25:18.494Z,66.70
2019-05-11T20:27:48.681Z,67.00
2019-05-11T20:30:18.409Z,67.10
2019-05-11T20:32:48.814Z,67.30
2019-05-11T20:35:17.964Z,67.50
2019-05-11T20:37:46.647Z,67.60
2019-05-11T20:40:15.358Z,67.60
2019-05-11T20:42:44.074Z,67.50
2019-05-11T20:45:12.774Z,67.60
2019-05-11T20:47:41.611Z,67.40
2019-05-11T20:50:10.396Z,67.40
2019-05-11T20:52:40.322Z,67.50
2019-05-11T20:55:09.272Z,67.40
2019-05-11T20:57:39.423Z,67.50
2019-05-11T21:00:10.131Z,67.80
2019-05-11T21:02:38.847Z,68.00
2019-05-11T21:05:09.066Z,68.00
2019-05-11T21:07:38.948Z,68.30
2019-05-11T21:10:09.074Z,68.40
2019-05-11T21:12:38.934Z,68.70
2019-05-11T21:15:08.741Z,69.00
2019-05-11T21:17:37.515Z,69.10
2019-05-11T21:20:09.082Z,69.30
2019-05-11T21:22:40.460Z,69.30
2019-05-11T21:25:09.073Z,69.00
2019-05-11T21:27:38.547Z,69.00
2019-05-11T21:30:09.113Z,69.30
2019-05-11T21:32:39.043Z,69.80
2019-05-11T21:35:08.900Z,70.10
2019-05-11T21:37:38.824Z,70.10
2019-05-11T21:40:08.783Z,70.20
2019-05-11T21:42:39.036Z,69.90
2019-05-11T21:45:09.837Z,70.00
2019-05-11T21:47:39.506Z,70.60
2019-05-11T21:50:09.393Z,70.70
2019-05-11T21:52:38.731Z,71.10
2019-05-11T21:55:09.493Z,72.00
2019-05-11T21:57:38.442Z,72.10
2019-05-11T22:00:10.253Z,72.30
2019-05-11T22:02:39.137Z,72.30
2019-05-11T22:05:08.329Z,72.80
2019-05-11T22:07:38.851Z,73.40
2019-05-11T22:10:08.853Z,73.40
2019-05-11T22:12:38.863Z,72.80
2019-05-11T22:15:09.127Z,72.70
2019-05-11T22:17:39.226Z,72.80
2019-05-11T22:20:08.708Z,72.60
2019-05-11T22:22:39.043Z,72.60
2019-05-11T22:25:08.471Z,72.40
2019-05-11T22:27:38.881Z,72.10
2019-05-11T22:30:10.244Z,72.10
2019-05-11T22:32:38.969Z,72.10
2019-05-11T22:35:10.347Z,72.10
2019-05-11T22:37:39.250Z,71.90
2019-05-11T22:40:08.382Z,71.80
2019-05-11T22:42:37.379Z,72.00
2019-05-11T22:45:08.529Z,71.80
2019-05-11T22:47:39.369Z,71.20
2019-05-11T22:50:09.499Z,71.70
2019-05-11T22:52:40.414Z,71.40
2019-05-11T22:55:11.696Z,71.40
2019-05-11T22:57:39.035Z,71.70
2019-05-11T23:00:09.833Z,71.60
2019-05-11T23:02:38.585Z,72.00
2019-05-11T23:05:08.422Z,72.40
2019-05-11T23:07:41.637Z,73.10
2019-05-11T23:10:09.637Z,74.20
2019-05-11T23:12:38.728Z,75.20
2019-05-11T23:15:09.324Z,75.80
2019-05-11T23:17:38.692Z,76.80
2019-05-11T23:20:07.549Z,75.90
2019-05-11T23:22:51.198Z,75.40
2019-05-11T23:25:08.183Z,75.40
2019-05-11T23:27:39.080Z,75.90
2019-05-11T23:30:08.786Z,76.40
2019-05-11T23:32:37.769Z,76.90
2019-05-11T23:35:08.346Z,77.40
2019-05-11T23:37:38.611Z,78.00
2019-05-11T23:40:09.546Z,78.80
2019-05-11T23:42:38.357Z,79.10
2019-05-11T23:45:08.397Z,79.50
2019-05-11T23:47:39.296Z,79.50
2019-05-11T23:50:08.312Z,79.50
2019-05-11T23:52:37.970Z,80.10
2019-05-11T23:55:08.207Z,80.40
2019-05-11T23:57:37.900Z,80.30
